Raunds, United Kingdom
Current Conditions -  °F | °C
As of 8:50 AM on Saturday 22 Nov 2014 (Local Time) from EGTC Reporting Station
Few Clouds Few Clouds  
Wind Chill: 12°   Ceiling: Unl
Heat Index: 12°   Visibility: 4mi
Dew Point: 12°   Wind: 8mph
Humidity: 100%   Direction: 170°S
Pressure: 29.85"   Gusts: NA
Location:  52.34°N, 0.54°W
Report Text: EGTC 220850Z 17007KT 6000 FEW004 12/12 Q1011
Loading
Personal Weather Stations






























Interactive Weather Map New forecast layout! Learn more

10-Day Weather Forecast

Advertisements
Track Severe Weather on mobile